createdAt,value
2023-01-10T00:00:11.527Z,96.86
2023-01-10T00:04:15.845Z,96.79
2023-01-10T00:08:19.811Z,97.34
2023-01-10T00:12:40.675Z,97.27
2023-01-10T00:16:45.503Z,98.18
2023-01-10T00:20:53.565Z,97.85
2023-01-10T00:24:57.755Z,98.03
2023-01-10T00:29:02.772Z,97.72
2023-01-10T00:33:09.675Z,97.21
2023-01-10T00:37:12.667Z,97.33
2023-01-10T00:41:30.505Z,97.66
2023-01-10T00:45:51.790Z,97.68
2023-01-10T00:50:01.513Z,97.93
2023-01-10T00:54:06.464Z,97.98
2023-01-10T00:58:12.068Z,97.61
2023-01-10T01:02:15.825Z,97.08
2023-01-10T01:06:22.975Z,97.96
2023-01-10T01:10:33.774Z,98.20
2023-01-10T01:14:37.308Z,98.03
2023-01-10T01:18:41.148Z,97.75
2023-01-10T01:22:46.818Z,97.38
2023-01-10T01:26:53.503Z,96.80
2023-01-10T01:30:57.980Z,96.20
2023-01-10T01:35:01.843Z,96.51
2023-01-10T01:39:07.402Z,96.90
2023-01-10T01:43:25.385Z,96.82
2023-01-10T01:47:30.669Z,96.71
2023-01-10T01:51:34.415Z,96.27
2023-01-10T01:55:44.272Z,96.64
2023-01-10T01:59:49.932Z,96.32
2023-01-10T02:03:57.726Z,96.68
2023-01-10T03:34:52.513Z,96.36
2023-01-10T03:39:13.059Z,96.25
2023-01-10T03:43:44.834Z,96.32
2023-01-10T03:47:53.839Z,95.35
2023-01-10T03:52:00.327Z,95.97
2023-01-10T03:56:21.844Z,96.21
2023-01-10T04:00:35.717Z,96.49
2023-01-10T04:04:51.595Z,96.93
2023-01-10T04:08:56.408Z,96.30
2023-01-10T04:13:03.597Z,95.72
2023-01-10T04:17:11.116Z,95.79
2023-01-10T04:21:14.728Z,96.12
2023-01-10T04:25:21.662Z,96.14
2023-01-10T04:29:36.079Z,96.26
2023-01-10T04:33:41.814Z,95.50
2023-01-10T04:37:52.467Z,95.68
2023-01-10T04:41:56.210Z,95.96
2023-01-10T04:46:30.336Z,96.17
2023-01-10T04:50:34.618Z,95.27
2023-01-10T04:54:41.937Z,96.26
2023-01-10T04:58:45.768Z,95.91
2023-01-10T05:02:51.359Z,95.63
2023-01-10T05:06:57.214Z,95.61
2023-01-10T05:11:01.054Z,96.40
2023-01-10T05:15:05.428Z,95.14
2023-01-10T05:23:49.813Z,95.06
2023-01-10T05:27:53.217Z,95.88
2023-01-10T05:32:11.064Z,94.79
2023-01-10T05:36:15.240Z,95.03
2023-01-10T05:40:21.429Z,95.26
2023-01-10T05:44:26.641Z,94.57
2023-01-10T05:48:46.071Z,95.02
2023-01-10T05:52:49.900Z,95.50
2023-01-10T05:56:55.214Z,95.59
2023-01-10T06:01:01.703Z,95.67
2023-01-10T06:05:07.370Z,95.16
2023-01-10T06:09:12.728Z,95.19
2023-01-10T06:13:20.814Z,95.32
2023-01-10T06:17:24.641Z,95.10
2023-01-10T06:21:30.037Z,94.49
2023-01-10T06:25:42.729Z,94.85
2023-01-10T06:29:52.418Z,94.42
2023-01-10T06:33:56.547Z,95.61
2023-01-10T06:38:00.702Z,94.78
2023-01-10T06:42:04.704Z,94.60
2023-01-10T06:46:13.358Z,95.83
2023-01-10T06:50:20.537Z,94.80
2023-01-10T06:54:24.531Z,95.22
2023-01-10T06:58:30.934Z,95.26
2023-01-10T07:02:40.072Z,94.67
2023-01-10T07:06:44.451Z,95.25
2023-01-10T07:11:06.910Z,96.04
2023-01-10T07:15:12.415Z,94.69
2023-01-10T07:19:18.099Z,95.33
2023-01-10T07:23:23.942Z,94.32
2023-01-10T07:27:28.915Z,95.78
2023-01-10T07:31:33.254Z,94.76
2023-01-10T07:35:42.455Z,95.56
2023-01-10T07:39:46.934Z,95.22
2023-01-10T07:43:51.791Z,94.91
2023-01-10T07:47:59.084Z,95.24
2023-01-10T07:52:05.747Z,94.93
2023-01-10T07:56:10.600Z,95.17
2023-01-10T08:00:17.953Z,94.69
2023-01-10T08:04:28.042Z,94.56
2023-01-10T08:08:39.337Z,95.14
2023-01-10T08:12:44.167Z,95.34
2023-01-10T08:16:48.919Z,94.70
2023-01-10T08:20:56.415Z,94.47
2023-01-10T08:25:17.056Z,94.48
2023-01-10T08:29:24.565Z,93.61
2023-01-10T08:33:29.243Z,95.06
2023-01-10T08:37:34.015Z,94.25
2023-01-10T08:41:40.320Z,94.26
2023-01-10T08:45:46.173Z,94.23
2023-01-10T08:49:55.394Z,94.56
2023-01-10T08:54:02.761Z,94.65
2023-01-10T08:58:15.387Z,94.54
2023-01-10T09:02:22.694Z,93.57
2023-01-10T09:06:27.208Z,94.36
2023-01-10T09:10:33.507Z,94.37
2023-01-10T09:14:37.739Z,94.40
2023-01-10T09:18:40.685Z,94.39
2023-01-10T09:22:43.534Z,93.78
2023-01-10T09:26:49.889Z,93.88
2023-01-10T09:30:55.234Z,93.83
2023-01-10T09:35:02.734Z,93.00
2023-01-10T09:39:08.334Z,94.37
2023-01-10T09:43:18.394Z,94.37
2023-01-10T09:47:31.755Z,93.61
2023-01-10T09:51:38.101Z,93.24
2023-01-10T09:55:53.384Z,93.92
2023-01-10T09:59:58.646Z,93.50
2023-01-10T10:04:07.032Z,92.72
2023-01-10T10:08:16.425Z,91.79
2023-01-10T10:12:29.178Z,91.22
2023-01-10T10:16:38.194Z,92.66
2023-01-10T10:20:53.356Z,91.04
2023-01-10T10:25:02.705Z,90.65
2023-01-10T10:29:34.504Z,90.75
2023-01-10T10:33:52.723Z,90.99
2023-01-10T10:38:01.353Z,90.13
2023-01-10T10:42:04.925Z,92.05
2023-01-10T10:46:09.712Z,89.30
2023-01-10T10:50:20.482Z,89.92
2023-01-10T10:54:33.111Z,90.44
2023-01-10T10:58:36.028Z,90.81
2023-01-10T11:02:43.403Z,90.65
2023-01-10T11:06:54.791Z,91.08
2023-01-10T11:11:03.617Z,91.25
2023-01-10T11:15:07.811Z,90.50
2023-01-10T11:19:17.918Z,90.15
2023-01-10T11:23:28.848Z,89.53
2023-01-10T11:27:38.663Z,89.17
2023-01-10T11:31:42.788Z,90.37
2023-01-10T11:35:59.081Z,89.88
2023-01-10T11:40:28.342Z,89.46
2023-01-10T11:44:40.692Z,89.56
2023-01-10T11:53:51.460Z,89.75
2023-01-10T11:58:10.474Z,89.12
2023-01-10T12:02:25.023Z,88.18
2023-01-10T12:06:30.818Z,88.12
2023-01-10T12:10:35.374Z,87.28
2023-01-10T12:14:41.969Z,89.22
2023-01-10T12:18:47.511Z,88.77
2023-01-10T12:22:58.538Z,88.40
2023-01-10T12:27:08.469Z,86.21
2023-01-10T12:31:14.856Z,87.92
2023-01-10T12:35:23.982Z,88.00
2023-01-10T12:39:34.888Z,87.19
2023-01-10T12:43:59.786Z,87.18
2023-01-10T12:48:08.323Z,86.73
2023-01-10T12:52:18.882Z,85.82
2023-01-10T12:56:25.025Z,87.23
2023-01-10T13:00:37.651Z,85.17
2023-01-10T13:04:44.985Z,86.45
2023-01-10T13:08:53.109Z,85.36
2023-01-10T13:12:59.509Z,85.33
2023-01-10T13:17:14.783Z,85.70
2023-01-10T13:21:21.707Z,84.87
2023-01-10T13:25:28.814Z,85.08
2023-01-10T13:29:43.160Z,83.95
2023-01-10T13:33:55.165Z,82.59
2023-01-10T13:37:59.912Z,84.65
2023-01-10T13:42:42.844Z,84.03
2023-01-10T13:46:50.681Z,81.83
2023-01-10T13:51:14.286Z,82.04
2023-01-10T13:55:36.116Z,82.10
2023-01-10T14:00:17.178Z,82.83
2023-01-10T14:04:22.839Z,83.24
2023-01-10T14:08:32.016Z,82.26
2023-01-10T14:12:36.528Z,83.33
2023-01-10T14:20:45.014Z,83.60
2023-01-10T14:24:53.417Z,83.54
2023-01-10T14:29:01.909Z,83.67
2023-01-10T14:33:14.382Z,83.88
2023-01-10T14:37:33.105Z,83.99
2023-01-10T14:41:43.609Z,85.23
2023-01-10T14:45:51.270Z,83.81
2023-01-10T14:49:57.121Z,84.03
2023-01-10T14:54:02.314Z,84.79
2023-01-10T14:58:06.501Z,84.58
2023-01-10T15:02:21.706Z,84.54
2023-01-10T15:06:28.108Z,84.06
2023-01-10T15:10:38.671Z,83.35
2023-01-10T15:14:42.152Z,84.29
2023-01-10T15:18:57.041Z,85.27
2023-01-10T15:23:04.189Z,83.91
2023-01-10T15:27:12.187Z,84.39
2023-01-10T15:31:18.288Z,85.58
2023-01-10T15:35:35.213Z,86.25
2023-01-10T15:39:52.660Z,87.46
2023-01-10T15:43:57.239Z,87.40
2023-01-10T15:48:04.713Z,88.12
2023-01-10T15:52:22.165Z,87.95
2023-01-10T15:56:32.642Z,87.94
2023-01-10T16:00:45.628Z,87.93
2023-01-10T16:04:53.206Z,88.26
2023-01-10T16:08:59.388Z,88.54
2023-01-10T16:13:34.274Z,88.29
2023-01-10T16:17:38.669Z,88.57
2023-01-10T16:21:43.733Z,88.52
2023-01-10T16:25:52.254Z,88.21
2023-01-10T16:29:57.674Z,88.71
2023-01-10T16:34:00.680Z,89.38
2023-01-10T16:38:03.853Z,89.35
2023-01-10T16:42:28.243Z,89.72
2023-01-10T16:46:34.410Z,89.76
2023-01-10T16:50:47.061Z,89.81
2023-01-10T16:54:50.058Z,90.65
2023-01-10T16:58:56.073Z,89.82
2023-01-10T17:03:00.693Z,90.84
2023-01-10T17:07:03.507Z,91.29
2023-01-10T17:11:09.851Z,91.04
2023-01-10T17:15:18.107Z,91.64
2023-01-10T17:19:25.360Z,91.56
2023-01-10T17:23:31.190Z,92.24
2023-01-10T17:27:35.278Z,92.59
2023-01-10T17:31:38.659Z,93.15
2023-01-10T17:35:48.425Z,92.81
2023-01-10T17:39:53.665Z,93.50
2023-01-10T17:43:57.266Z,94.24
2023-01-10T17:48:00.402Z,93.83
2023-01-10T17:52:09.283Z,93.53
2023-01-10T17:56:12.512Z,94.14
2023-01-10T18:00:19.034Z,94.20
2023-01-10T18:04:23.256Z,94.61
2023-01-10T18:08:30.312Z,95.34
2023-01-10T18:12:33.606Z,95.98
2023-01-10T18:16:37.180Z,95.86
2023-01-10T18:20:42.740Z,96.04
2023-01-10T18:24:47.417Z,95.50
2023-01-10T18:28:50.675Z,96.40
2023-01-10T18:32:55.133Z,96.30
2023-01-10T18:37:01.506Z,96.46
2023-01-10T18:41:07.731Z,96.25
2023-01-10T18:45:11.757Z,96.49
2023-01-10T18:49:14.504Z,96.20
2023-01-10T18:53:20.739Z,96.69
2023-01-10T18:57:25.687Z,96.34
2023-01-10T19:01:31.507Z,96.15
2023-01-10T19:05:35.435Z,96.56
2023-01-10T19:09:38.440Z,96.31
2023-01-10T19:13:43.121Z,96.61
2023-01-10T19:17:56.107Z,96.26
2023-01-10T19:21:59.433Z,96.91
2023-01-10T19:26:02.138Z,96.56
2023-01-10T19:30:21.778Z,96.88
2023-01-10T19:34:32.068Z,96.78
2023-01-10T19:38:39.233Z,97.15
2023-01-10T19:42:42.530Z,97.17
2023-01-10T19:46:49.048Z,97.28
2023-01-10T19:50:55.127Z,97.25
2023-01-10T19:54:59.496Z,96.71
2023-01-10T19:59:02.457Z,97.34
2023-01-10T20:03:08.961Z,97.59
2023-01-10T20:07:11.844Z,97.07
2023-01-10T20:11:37.643Z,97.11
2023-01-10T20:15:42.382Z,96.73
2023-01-10T20:19:50.007Z,97.04
2023-01-10T20:23:53.338Z,97.06
2023-01-10T20:27:57.862Z,97.23
2023-01-10T20:32:04.089Z,97.16
2023-01-10T20:36:13.821Z,97.45
2023-01-10T20:40:17.561Z,96.81
2023-01-10T20:44:22.807Z,97.64
2023-01-10T20:48:28.676Z,97.27
2023-01-10T20:52:33.212Z,97.43
2023-01-10T20:56:39.115Z,97.68
2023-01-10T21:00:42.073Z,97.45
2023-01-10T21:04:45.807Z,97.51
2023-01-10T21:08:52.385Z,97.49
2023-01-10T21:12:55.580Z,97.70
2023-01-10T21:17:00.674Z,97.90
2023-01-10T21:21:06.925Z,97.38
2023-01-10T21:25:14.990Z,97.20
2023-01-10T21:29:18.147Z,97.30
2023-01-10T21:33:21.317Z,97.79
2023-01-10T21:37:24.072Z,97.73
2023-01-10T21:41:46.456Z,97.83
2023-01-10T21:45:58.420Z,97.85
2023-01-10T21:50:01.569Z,97.42
2023-01-10T21:54:04.901Z,97.59
2023-01-10T21:58:09.233Z,97.68
2023-01-10T22:02:15.221Z,97.30
2023-01-10T22:06:20.291Z,97.61
2023-01-10T22:10:24.214Z,97.49
2023-01-10T22:14:42.861Z,97.29
2023-01-10T22:18:47.594Z,97.58
2023-01-10T22:22:52.391Z,97.42
2023-01-10T22:27:02.215Z,97.14
2023-01-10T22:31:11.327Z,97.58
2023-01-10T22:35:14.907Z,98.00
2023-01-10T22:39:25.969Z,97.31
2023-01-10T22:43:29.058Z,96.87
2023-01-10T22:47:38.694Z,97.16
2023-01-10T22:51:42.441Z,97.15
2023-01-10T22:55:46.160Z,97.34
2023-01-10T22:59:49.680Z,97.13
2023-01-10T23:03:55.538Z,97.07
2023-01-10T23:08:00.068Z,97.02
2023-01-10T23:12:10.394Z,97.16
2023-01-10T23:16:16.013Z,97.52
2023-01-10T23:20:23.354Z,97.11
2023-01-10T23:24:31.018Z,97.39
2023-01-10T23:28:36.204Z,97.57
2023-01-10T23:32:39.255Z,97.54
2023-01-10T23:36:43.662Z,97.74
2023-01-10T23:40:47.833Z,97.79
2023-01-10T23:44:51.106Z,97.19
2023-01-10T23:48:54.706Z,97.98
2023-01-10T23:52:59.683Z,97.74
